You are not logged in, Click here to log in
內排國際機場 HAN / VVNB 越南首都河內
ICAO: VVNB Country: 越南首都河內
Latitude: 21.2187 Longitude: 105.804
Total Arrivals: 32 Total Departures: 29
Latest Arrival: BR397 (RCTP-VVNB)ALAN. LIU Latest Departure: NH858 (VVNB-RJTT)Mori. Yang
Scenery:
METAR : VVNB 031730Z 05006KT 010V070 9999 -RA SCT018 BKN027 27/25 Q1001 NOSIG

內排國際機場 HAN

You are accessing this site from IP address 34.200.243.114. Virtual Airline. CMS by phpVMS.Website designed by Zumeweb and edited by Theo Bearman.
There is 0 User(s) Online: | and 14 Guest(s) Online.
All information on this site is for fight simulation purposes only. This site is for flight logging for pilots of Virtual Airline&模擬飛行論壇 FlySim only.